Aérodrome :
LOGIN :

S'inscrire | Disclaimer

   EN    FR    IT 

 










Légende :    VFR   VFR Marginal   IFR   IFR Intensif   IFR Très Intensif
Visi : 
Plafond : 
>= 8 km
>= 3000ft
5 à 8 km
1000 à 3000 ft
1500m à 5 km
500 à 1000 ft
800 à 1500m
200 à 500 ft
< 800m
< 200 ft
Symboles :   Orages  Brouillard  Fortes neiges  Fortes précipitations  Vent > 20 kt
SIGMETs :   Divers  Orages  Givrage  Turbulence  Onde Orograph.  Cendres Volcan.






- Altitude de l'aérodrome : 779 ft
- Code IATA : CMF


LFLB - Chambery / Aix-Les-Bains

DERNIER METAR :
  • 190230Z AUTO VRB03KT 5000 RA BR FEW046/// BKN058/// BKN076/// ///CB 14/13 Q1016

METARs EXPIRÉS :
  • 190200Z AUTO 16003KT 130V190 7000 RA FEW034/// BKN040/// BKN048/// ///TCU 14/13 Q1016
  • 190130Z AUTO 12006KT 100V160 7000 RA BKN034/// OVC043/// ///CB 15/14 Q1015
  • 190100Z AUTO 11006KT 5000 +RA BR BKN045/// OVC052/// ///CB 15/14 Q1015
  • 190030Z AUTO 16009KT 9999 -RA BKN035/// BKN043/// OVC052/// ///CB 16/13 Q1014
  • 190000Z AUTO VRB07G18KT 9999 BKN037/// BKN045/// OVC062/// ///CB 18/12 Q1014

TAF TAF LFLB
Valide du 18 à 15h jusqu'au 19 à 15h UTC


181400Z 1815/1915 36005KT CAVOK
BECMG 1819/1821 VRB02KT
TEMPO 1823/1904 4000 RA BKN020 BKN030TCU OVC050
PROB40
TEMPO 1823/1903 27015G30KT 2000 TSRA BKN011 SCT020CB
PROB30
TEMPO 1900/1903 27025G50KT
BECMG 1904/1906 16005KT 5000 -RA BKN040
TEMPO 1908/1915 4000 RA SCT020TCU BKN030



MET'MAP, la Météo Aéronautique d'un coup d'oeil ! - Copyright ORBIFLY Décembre 2007 - Disclaimer

ORBIFLY MET'MAP TEAM :

Programmation & Développement : Alexandra Zaïnal
Sur une idée originale de : Baudouin d'Aumeries
Assistance à la programmation : Marc-Olivier Méhu
Soutien technique & logistique : Manuel Goepfert

Contact : metmap@orbifly.com




SOURCES & CREDITS :

   NOAA